createdAt,value
2018-05-18T00:01:57.938Z,51.20
2018-05-18T00:04:25.378Z,51.20
2018-05-18T00:06:53.612Z,51.70
2018-05-18T00:09:21.058Z,51.70
2018-05-18T00:11:48.533Z,51.70
2018-05-18T00:14:16.082Z,51.90
2018-05-18T00:16:44.046Z,52.10
2018-05-18T00:19:11.509Z,52.10
2018-05-18T00:21:39.065Z,52.20
2018-05-18T00:24:06.506Z,52.40
2018-05-18T00:26:33.946Z,52.30
2018-05-18T00:29:01.386Z,52.40
2018-05-18T00:31:29.614Z,52.50
2018-05-18T00:33:57.058Z,52.60
2018-05-18T00:36:24.630Z,52.60
2018-05-18T00:38:52.091Z,52.70
2018-05-18T00:41:19.642Z,52.60
2018-05-18T00:43:47.082Z,52.60
2018-05-18T00:46:14.517Z,53.00
2018-05-18T00:48:41.959Z,52.90
2018-05-18T00:51:10.158Z,52.80
2018-05-18T00:53:37.646Z,52.70
2018-05-18T00:56:05.101Z,52.90
2018-05-18T00:58:32.558Z,52.80
2018-05-18T01:01:00.329Z,53.10
2018-05-18T01:03:27.769Z,52.90
2018-05-18T01:05:55.206Z,53.00
2018-05-18T01:08:22.653Z,53.20
2018-05-18T01:10:50.082Z,53.30
2018-05-18T01:13:17.605Z,53.60
2018-05-18T01:15:45.114Z,53.50
2018-05-18T01:18:12.517Z,53.60
2018-05-18T01:20:39.982Z,53.70
2018-05-18T01:23:07.434Z,53.60
2018-05-18T01:25:34.902Z,53.60
2018-05-18T01:28:02.358Z,53.30
2018-05-18T01:30:29.790Z,53.60
2018-05-18T01:32:57.235Z,53.60
2018-05-18T01:35:24.723Z,53.50
2018-05-18T01:37:52.182Z,53.50
2018-05-18T01:40:19.738Z,53.30
2018-05-18T01:42:47.626Z,53.60
2018-05-18T01:45:15.069Z,53.50
2018-05-18T01:47:42.619Z,53.80
2018-05-18T01:50:10.070Z,53.50
2018-05-18T01:52:37.510Z,53.60
2018-05-18T01:55:04.950Z,53.60
2018-05-18T01:57:32.451Z,53.90
2018-05-18T01:59:59.906Z,53.90
2018-05-18T02:02:27.442Z,53.80
2018-05-18T02:04:54.929Z,53.70
2018-05-18T02:07:22.366Z,54.00
2018-05-18T02:09:49.841Z,54.10
2018-05-18T02:12:17.303Z,54.00
2018-05-18T02:14:44.738Z,54.10
2018-05-18T02:17:12.212Z,54.20
2018-05-18T02:19:39.662Z,54.10
2018-05-18T02:22:07.106Z,54.20
2018-05-18T02:24:34.579Z,54.30
2018-05-18T02:27:02.036Z,54.30
2018-05-18T02:29:29.494Z,54.60
2018-05-18T02:31:57.399Z,54.60
2018-05-18T02:34:25.638Z,54.50
2018-05-18T02:36:53.195Z,54.50
2018-05-18T02:39:20.695Z,54.50
2018-05-18T02:41:48.213Z,54.50
2018-05-18T02:44:15.647Z,54.60
2018-05-18T02:46:43.088Z,54.50
2018-05-18T02:49:10.538Z,54.30
2018-05-18T02:51:38.038Z,54.40
2018-05-18T02:54:05.491Z,54.60
2018-05-18T02:56:33.684Z,54.50
2018-05-18T02:59:01.227Z,54.80
2018-05-18T03:01:28.678Z,54.80
2018-05-18T03:03:56.143Z,54.80
2018-05-18T03:06:23.580Z,54.90
2018-05-18T03:08:51.055Z,54.80
2018-05-18T03:11:18.498Z,54.70
2018-05-18T03:13:45.967Z,54.80
2018-05-18T03:16:13.406Z,54.90
2018-05-18T03:18:40.844Z,54.90
2018-05-18T03:21:08.374Z,54.80
2018-05-18T03:23:36.498Z,54.90
2018-05-18T03:26:03.968Z,54.90
2018-05-18T03:28:31.415Z,54.80
2018-05-18T03:30:58.858Z,54.70
2018-05-18T03:33:26.337Z,54.80
2018-05-18T03:35:53.794Z,54.70
2018-05-18T03:38:21.254Z,54.70
2018-05-18T03:40:48.706Z,54.70
2018-05-18T03:43:16.166Z,55.00
2018-05-18T03:45:43.648Z,55.20
2018-05-18T03:48:11.094Z,55.30
2018-05-18T03:50:38.646Z,55.50
2018-05-18T03:53:06.199Z,55.30
2018-05-18T03:55:33.642Z,55.20
2018-05-18T03:58:01.079Z,55.40
2018-05-18T04:00:28.571Z,55.40
2018-05-18T04:03:08.006Z,55.20
2018-05-18T04:08:48.894Z,55.40
2018-05-18T04:11:16.362Z,55.50
2018-05-18T04:13:43.818Z,55.40
2018-05-18T04:16:11.374Z,55.40
2018-05-18T04:18:38.812Z,55.70
2018-05-18T04:21:06.289Z,55.60
2018-05-18T04:23:33.725Z,55.40
2018-05-18T04:26:01.171Z,55.40
2018-05-18T04:28:28.662Z,55.50
2018-05-18T04:30:56.116Z,55.80
2018-05-18T04:33:23.570Z,55.70
2018-05-18T04:35:51.334Z,55.60
2018-05-18T04:38:18.795Z,55.70
2018-05-18T04:40:46.432Z,56.00
2018-05-18T04:43:13.994Z,55.80
2018-05-18T04:45:41.351Z,56.20
2018-05-18T04:48:08.871Z,56.20
2018-05-18T04:50:36.234Z,56.10
2018-05-18T04:53:04.454Z,56.30
2018-05-18T04:55:31.890Z,56.30
2018-05-18T04:57:59.371Z,56.50
2018-05-18T05:00:26.828Z,56.30
2018-05-18T05:02:54.282Z,56.60
2018-05-18T05:05:21.824Z,56.50
2018-05-18T05:07:49.814Z,56.40
2018-05-18T05:10:17.374Z,56.60
2018-05-18T05:12:44.806Z,56.70
2018-05-18T05:15:12.258Z,57.10
2018-05-18T05:17:40.359Z,57.10
2018-05-18T05:20:07.930Z,57.20
2018-05-18T05:22:35.474Z,56.60
2018-05-18T05:25:02.917Z,57.00
2018-05-18T05:27:30.389Z,56.50
2018-05-18T05:29:57.846Z,56.30
2018-05-18T05:32:25.302Z,56.80
2018-05-18T05:34:52.750Z,56.70
2018-05-18T05:37:20.218Z,56.40
2018-05-18T05:39:47.674Z,56.40
2018-05-18T05:42:15.122Z,56.50
2018-05-18T05:44:42.554Z,56.60
2018-05-18T05:47:10.042Z,56.50
2018-05-18T05:49:37.490Z,56.60
2018-05-18T05:52:04.958Z,56.70
2018-05-18T05:54:32.398Z,56.40
2018-05-18T05:56:59.842Z,56.40
2018-05-18T05:59:27.340Z,56.60
2018-05-18T06:01:55.002Z,56.00
2018-05-18T06:04:22.549Z,55.80
2018-05-18T06:06:50.630Z,55.60
2018-05-18T06:09:18.074Z,55.60
2018-05-18T06:11:45.517Z,55.90
2018-05-18T06:14:12.955Z,55.70
2018-05-18T06:16:40.454Z,55.90
2018-05-18T06:19:07.922Z,55.60
2018-05-18T06:21:35.468Z,55.50
2018-05-18T06:24:02.910Z,55.20
2018-05-18T06:26:30.342Z,55.60
2018-05-18T06:28:57.779Z,55.50
2018-05-18T06:31:26.027Z,55.30
2018-05-18T06:33:53.459Z,55.30
2018-05-18T06:36:20.903Z,55.20
2018-05-18T06:38:48.346Z,55.60
2018-05-18T06:41:15.865Z,55.40
2018-05-18T06:43:44.015Z,55.70
2018-05-18T06:46:11.470Z,55.70
2018-05-18T06:48:38.926Z,55.60
2018-05-18T06:51:06.465Z,55.90
2018-05-18T06:53:33.898Z,55.70
2018-05-18T06:56:01.342Z,55.40
2018-05-18T06:58:29.546Z,55.60
2018-05-18T07:00:56.978Z,55.40
2018-05-18T07:03:25.190Z,55.50
2018-05-18T07:05:52.662Z,55.40
2018-05-18T07:08:20.113Z,55.40
2018-05-18T07:10:47.574Z,55.40
2018-05-18T07:13:15.022Z,55.60
2018-05-18T07:15:42.481Z,55.30
2018-05-18T07:18:09.934Z,55.60
2018-05-18T07:20:37.363Z,55.60
2018-05-18T07:23:04.943Z,55.40
2018-05-18T07:25:32.317Z,55.80
2018-05-18T07:27:59.770Z,55.80
2018-05-18T07:30:27.226Z,55.60
2018-05-18T07:32:54.672Z,55.50
2018-05-18T07:35:22.110Z,55.30
2018-05-18T07:37:49.598Z,55.50
2018-05-18T07:40:17.071Z,55.70
2018-05-18T07:42:44.618Z,55.70
2018-05-18T07:45:12.074Z,55.60
2018-05-18T07:47:39.533Z,55.60
2018-05-18T07:50:07.105Z,55.60
2018-05-18T07:52:34.542Z,55.70
2018-05-18T07:55:02.015Z,55.80
2018-05-18T07:57:29.446Z,55.80
2018-05-18T07:59:56.914Z,55.70
2018-05-18T08:02:24.359Z,55.50
2018-05-18T08:04:51.859Z,55.60
2018-05-18T08:07:19.290Z,55.80
2018-05-18T08:09:46.770Z,55.80
2018-05-18T08:12:14.302Z,55.80
2018-05-18T08:14:42.505Z,55.70
2018-05-18T08:17:09.959Z,55.70
2018-05-18T08:19:37.499Z,55.60
2018-05-18T08:22:04.935Z,55.80
2018-05-18T08:24:32.430Z,55.40
2018-05-18T08:27:11.897Z,55.60
2018-05-18T08:29:39.434Z,55.60
2018-05-18T08:32:06.970Z,55.40
2018-05-18T08:34:34.433Z,55.90
2018-05-18T08:37:01.867Z,55.50
2018-05-18T08:39:29.339Z,55.60
2018-05-18T08:41:56.822Z,55.60
2018-05-18T08:44:24.373Z,55.30
2018-05-18T08:46:51.812Z,55.30
2018-05-18T08:49:19.241Z,55.00
2018-05-18T08:51:46.936Z,55.00
2018-05-18T08:54:14.469Z,55.30
2018-05-18T08:56:41.982Z,55.60
2018-05-18T08:59:09.410Z,55.30
2018-05-18T09:01:36.959Z,55.50
2018-05-18T09:04:04.425Z,55.10
2018-05-18T09:06:32.007Z,55.00
2018-05-18T09:08:59.458Z,55.10
2018-05-18T09:11:26.998Z,55.30
2018-05-18T09:13:54.437Z,55.00
2018-05-18T09:16:21.903Z,55.10
2018-05-18T09:18:49.406Z,55.10
2018-05-18T09:21:17.651Z,54.90
2018-05-18T09:23:45.241Z,54.70
2018-05-18T09:26:12.698Z,54.80
2018-05-18T09:28:40.131Z,55.60
2018-05-18T09:31:07.606Z,54.90
2018-05-18T09:33:35.158Z,54.60
2018-05-18T09:36:02.594Z,55.40
2018-05-18T09:38:30.029Z,54.70
2018-05-18T09:40:57.530Z,55.00
2018-05-18T09:43:24.960Z,54.60
2018-05-18T09:45:52.422Z,54.60
2018-05-18T09:48:19.883Z,54.60
2018-05-18T09:50:47.325Z,54.70
2018-05-18T09:53:14.810Z,54.50
2018-05-18T09:55:42.271Z,54.10
2018-05-18T09:58:09.714Z,54.40
2018-05-18T10:00:37.346Z,53.80
2018-05-18T10:03:04.750Z,53.90
2018-05-18T10:05:32.230Z,54.00
2018-05-18T10:08:00.450Z,53.80
2018-05-18T10:10:27.876Z,53.70
2018-05-18T10:12:55.362Z,53.60
2018-05-18T10:15:22.823Z,53.60
2018-05-18T10:17:50.286Z,54.10
2018-05-18T10:20:17.762Z,54.00
2018-05-18T10:22:45.300Z,53.70
2018-05-18T10:25:12.750Z,54.10
2018-05-18T10:27:40.215Z,53.90
2018-05-18T10:30:07.698Z,54.20
2018-05-18T10:32:35.247Z,53.60
2018-05-18T10:35:02.715Z,54.20
2018-05-18T10:37:30.174Z,53.90
2018-05-18T10:39:57.606Z,53.30
2018-05-18T10:42:25.077Z,54.60
2018-05-18T10:44:52.635Z,53.90
2018-05-18T10:47:20.071Z,54.00
2018-05-18T10:49:47.519Z,53.70
2018-05-18T10:52:14.958Z,53.30
2018-05-18T10:54:42.423Z,53.40
2018-05-18T10:57:09.894Z,53.80
2018-05-18T10:59:37.332Z,53.70
2018-05-18T11:02:04.774Z,53.40
2018-05-18T11:04:32.210Z,52.70
2018-05-18T11:07:00.451Z,53.10
2018-05-18T11:09:27.890Z,53.10
2018-05-18T11:11:55.370Z,53.40
2018-05-18T11:14:22.833Z,53.40
2018-05-18T11:16:50.265Z,53.20
2018-05-18T11:19:17.724Z,53.50
2018-05-18T11:21:45.209Z,53.20
2018-05-18T11:24:12.640Z,52.90
2018-05-18T11:26:40.101Z,53.40
2018-05-18T11:29:07.588Z,53.30
2018-05-18T11:31:35.014Z,53.10
2018-05-18T11:34:02.479Z,53.20
2018-05-18T11:36:29.934Z,53.00
2018-05-18T11:38:57.406Z,53.30
2018-05-18T11:41:25.549Z,53.00
2018-05-18T11:43:53.137Z,52.80
2018-05-18T11:46:20.594Z,52.80
2018-05-18T11:48:48.156Z,52.80
2018-05-18T11:51:15.614Z,52.90
2018-05-18T11:53:43.079Z,53.00
2018-05-18T11:56:10.545Z,52.60
2018-05-18T11:58:37.980Z,52.80
2018-05-18T12:01:05.544Z,52.60
2018-05-18T12:03:33.098Z,53.30
2018-05-18T12:06:00.658Z,52.80
2018-05-18T12:08:28.129Z,52.90
2018-05-18T12:10:55.654Z,53.00
2018-05-18T12:13:23.102Z,53.30
2018-05-18T12:15:50.590Z,53.20
2018-05-18T12:18:18.122Z,53.20
2018-05-18T12:20:45.706Z,53.00
2018-05-18T12:23:13.172Z,53.00
2018-05-18T12:25:40.676Z,52.80
2018-05-18T12:28:08.100Z,53.10
2018-05-18T12:30:36.437Z,52.60
2018-05-18T12:33:03.912Z,52.60
2018-05-18T12:35:31.487Z,52.90
2018-05-18T12:37:58.981Z,52.60
2018-05-18T12:40:27.177Z,53.00
2018-05-18T12:42:54.942Z,52.90
2018-05-18T12:45:22.410Z,53.10
2018-05-18T12:47:49.962Z,53.00
2018-05-18T12:50:17.419Z,53.00
2018-05-18T12:52:44.883Z,53.10
2018-05-18T12:55:12.358Z,53.20
2018-05-18T12:57:39.894Z,52.90
2018-05-18T13:00:07.357Z,52.80
2018-05-18T13:02:34.810Z,53.00
2018-05-18T13:05:02.370Z,52.30
2018-05-18T13:07:29.818Z,52.30
2018-05-18T13:09:57.685Z,52.50
2018-05-18T13:12:25.155Z,52.80
2018-05-18T13:14:52.636Z,52.60
2018-05-18T13:17:20.102Z,52.30
2018-05-18T13:19:48.338Z,52.30
2018-05-18T13:22:15.817Z,52.30
2018-05-18T13:24:43.246Z,52.50
2018-05-18T13:27:10.734Z,52.30
2018-05-18T13:29:38.193Z,52.60
2018-05-18T13:32:05.722Z,52.30
2018-05-18T13:34:33.206Z,52.50
2018-05-18T13:37:00.654Z,52.50
2018-05-18T13:39:28.127Z,52.70
2018-05-18T13:41:55.581Z,52.80
2018-05-18T13:44:23.110Z,52.40
2018-05-18T13:46:50.570Z,52.60
2018-05-18T13:49:18.010Z,52.60
2018-05-18T13:51:45.549Z,52.60
2018-05-18T13:54:13.079Z,52.40
2018-05-18T13:56:40.698Z,52.10
2018-05-18T13:59:08.145Z,52.20
2018-05-18T14:01:35.591Z,52.50
2018-05-18T14:04:03.049Z,52.50
2018-05-18T14:06:30.482Z,52.30
2018-05-18T14:08:58.046Z,52.50
2018-05-18T14:11:26.258Z,52.70
2018-05-18T14:13:53.747Z,52.70
2018-05-18T14:16:21.214Z,52.70
2018-05-18T14:18:48.738Z,52.30
2018-05-18T14:21:16.202Z,52.50
2018-05-18T14:23:43.625Z,52.50
2018-05-18T14:26:11.067Z,52.60
2018-05-18T14:28:38.497Z,52.60
2018-05-18T14:31:06.762Z,52.50
2018-05-18T14:33:34.218Z,52.50
2018-05-18T14:36:01.778Z,52.50
2018-05-18T14:38:29.242Z,52.30
2018-05-18T14:40:56.666Z,52.70
2018-05-18T14:43:24.149Z,52.80
2018-05-18T14:45:51.582Z,52.70
2018-05-18T14:48:19.050Z,52.80
2018-05-18T14:50:46.490Z,52.70
2018-05-18T14:53:13.966Z,53.50
2018-05-18T14:55:41.439Z,53.00
2018-05-18T14:58:09.005Z,53.20
2018-05-18T15:00:36.554Z,53.20
2018-05-18T15:03:04.082Z,53.00
2018-05-18T15:05:31.543Z,53.60
2018-05-18T15:07:59.007Z,53.30
2018-05-18T15:10:26.454Z,53.50
2018-05-18T15:12:53.890Z,53.70
2018-05-18T15:15:21.369Z,53.40
2018-05-18T15:17:48.829Z,52.60
2018-05-18T15:20:16.283Z,52.60
2018-05-18T15:22:43.734Z,53.10
2018-05-18T15:25:11.198Z,53.00
2018-05-18T15:27:38.662Z,52.90
2018-05-18T15:30:06.622Z,53.40
2018-05-18T15:32:34.078Z,53.00
2018-05-18T15:35:01.516Z,53.40
2018-05-18T15:37:28.986Z,53.00
2018-05-18T15:39:56.431Z,53.50
2018-05-18T15:42:23.938Z,53.60
2018-05-18T15:44:51.365Z,53.80
2018-05-18T15:47:19.029Z,53.50
2018-05-18T15:49:46.582Z,53.10
2018-05-18T15:52:14.042Z,53.10
2018-05-18T15:54:41.493Z,53.30
2018-05-18T15:57:08.934Z,53.70
2018-05-18T15:59:37.066Z,53.60
2018-05-18T16:02:04.618Z,54.20
2018-05-18T16:04:32.083Z,54.00
2018-05-18T16:06:59.610Z,53.90
2018-05-18T16:09:27.082Z,53.90
2018-05-18T16:11:54.541Z,54.30
2018-05-18T16:14:22.002Z,54.60
2018-05-18T16:16:49.478Z,54.10
2018-05-18T16:19:17.738Z,53.80
2018-05-18T16:21:45.265Z,53.80
2018-05-18T16:24:12.738Z,54.30
2018-05-18T16:26:40.199Z,53.90
2018-05-18T16:29:07.642Z,53.70
2018-05-18T16:31:35.095Z,53.40
2018-05-18T16:34:02.554Z,54.20
2018-05-18T16:36:30.031Z,54.00
2018-05-18T16:38:57.598Z,54.30
2018-05-18T16:41:26.034Z,54.20
2018-05-18T16:43:53.514Z,54.00
2018-05-18T16:46:21.005Z,54.50
2018-05-18T16:48:49.265Z,53.50
2018-05-18T16:51:17.525Z,53.30
2018-05-18T16:53:45.084Z,53.90
2018-05-18T16:56:12.646Z,55.50
2018-05-18T16:58:40.090Z,54.20
2018-05-18T17:01:07.737Z,54.30
2018-05-18T17:03:35.175Z,55.40
2018-05-18T17:06:02.626Z,54.00
2018-05-18T17:08:30.160Z,54.10
2018-05-18T17:10:57.590Z,55.00
2018-05-18T17:13:25.170Z,54.30
2018-05-18T17:15:52.631Z,54.50
2018-05-18T17:18:20.083Z,54.40
2018-05-18T17:20:47.510Z,55.10
2018-05-18T17:23:14.946Z,55.30
2018-05-18T17:25:42.425Z,55.20
2018-05-18T17:28:09.879Z,54.90
2018-05-18T17:30:37.307Z,54.90
2018-05-18T17:33:04.774Z,54.90
2018-05-18T17:35:32.213Z,55.00
2018-05-18T17:37:59.642Z,55.40
2018-05-18T17:40:27.860Z,55.00
2018-05-18T17:42:55.329Z,54.90
2018-05-18T17:45:22.760Z,55.30
2018-05-18T17:47:50.216Z,54.80
2018-05-18T17:50:18.426Z,55.30
2018-05-18T17:52:45.889Z,55.30
2018-05-18T17:55:13.321Z,55.80
2018-05-18T17:57:40.798Z,56.00
2018-05-18T18:00:08.228Z,56.50
2018-05-18T18:02:35.706Z,56.50
2018-05-18T18:05:03.135Z,56.20
2018-05-18T18:07:30.577Z,56.10
2018-05-18T18:09:58.786Z,56.10
2018-05-18T18:12:26.221Z,56.00
2018-05-18T18:14:53.874Z,56.60
2018-05-18T18:17:21.307Z,56.90
2018-05-18T18:19:49.538Z,56.40
2018-05-18T18:22:16.990Z,56.40
2018-05-18T18:24:44.453Z,56.90
2018-05-18T18:27:11.882Z,57.10
2018-05-18T18:29:39.342Z,56.90
2018-05-18T18:32:06.826Z,57.40
2018-05-18T18:34:34.273Z,57.10
2018-05-18T18:37:01.734Z,57.40
2018-05-18T18:39:29.189Z,57.40
2018-05-18T18:41:56.618Z,57.60
2018-05-18T18:44:24.058Z,57.50
2018-05-18T18:46:52.304Z,58.10
2018-05-18T18:49:19.736Z,58.00
2018-05-18T18:51:47.194Z,58.40
2018-05-18T18:54:14.669Z,58.70
2018-05-18T18:56:42.099Z,59.40
2018-05-18T18:59:09.558Z,59.20
2018-05-18T19:01:37.000Z,59.40
2018-05-18T19:04:04.467Z,59.40
2018-05-18T19:06:31.937Z,59.20
2018-05-18T19:08:59.381Z,59.40
2018-05-18T19:11:26.847Z,59.40
2018-05-18T19:13:54.274Z,59.40
2018-05-18T19:16:21.729Z,59.70
2018-05-18T19:18:49.926Z,59.60
2018-05-18T19:21:17.382Z,59.60
2018-05-18T19:23:44.850Z,59.70
2018-05-18T19:26:12.322Z,59.80
2018-05-18T19:28:39.749Z,59.60
2018-05-18T19:31:07.188Z,59.60
2018-05-18T19:33:34.623Z,59.50
2018-05-18T19:36:02.850Z,59.30
2018-05-18T19:38:30.875Z,59.30
2018-05-18T19:40:59.090Z,59.40
2018-05-18T19:43:26.566Z,59.40
2018-05-18T19:45:53.997Z,59.20
2018-05-18T19:48:21.431Z,59.10
2018-05-18T19:50:49.639Z,59.80
2018-05-18T19:53:17.095Z,59.20
2018-05-18T19:55:44.522Z,59.20
2018-05-18T19:58:12.005Z,59.20
2018-05-18T20:00:40.170Z,59.20
2018-05-18T20:03:07.642Z,59.20
2018-05-18T20:05:35.098Z,59.40
2018-05-18T20:08:02.522Z,59.40
2018-05-18T20:10:29.974Z,59.40
2018-05-18T20:12:58.193Z,59.50
2018-05-18T20:15:25.646Z,59.50
2018-05-18T20:17:53.103Z,59.20
2018-05-18T20:20:20.562Z,59.30
2018-05-18T20:22:48.039Z,59.40
2018-05-18T20:25:15.530Z,59.20
2018-05-18T20:27:43.737Z,59.00
2018-05-18T20:30:11.214Z,59.00
2018-05-18T20:32:38.643Z,59.50
2018-05-18T20:35:06.107Z,59.40
2018-05-18T20:37:33.534Z,59.40
2018-05-18T20:40:01.766Z,59.50
2018-05-18T20:42:29.197Z,59.40
2018-05-18T20:44:56.710Z,59.40
2018-05-18T20:47:24.175Z,59.40
2018-05-18T20:49:52.371Z,59.70
2018-05-18T20:52:19.834Z,59.70
2018-05-18T20:54:47.271Z,59.60
2018-05-18T20:57:15.490Z,59.40
2018-05-18T20:59:43.054Z,59.40
2018-05-18T21:02:10.631Z,59.60
2018-05-18T21:04:38.056Z,59.60
2018-05-18T21:07:05.514Z,59.40
2018-05-18T21:09:32.966Z,59.40
2018-05-18T21:12:00.422Z,59.50
2018-05-18T21:14:27.854Z,59.50
2018-05-18T21:16:55.286Z,60.00
2018-05-18T21:19:22.765Z,59.80
2018-05-18T21:21:50.992Z,59.60
2018-05-18T21:24:18.437Z,59.50
2018-05-18T21:26:45.899Z,59.80
2018-05-18T21:29:13.359Z,59.80
2018-05-18T21:31:40.878Z,60.20
2018-05-18T21:34:08.306Z,60.10
2018-05-18T21:36:36.508Z,60.00
2018-05-18T21:39:03.973Z,59.90
2018-05-18T21:41:31.435Z,59.80
2018-05-18T21:43:58.870Z,59.80
2018-05-18T21:46:27.078Z,60.10
2018-05-18T21:48:54.605Z,60.10
2018-05-18T21:51:22.846Z,60.30
2018-05-18T21:53:50.271Z,60.30
2018-05-18T21:56:17.750Z,60.40
2018-05-18T21:58:45.176Z,60.10
2018-05-18T22:01:12.643Z,60.30
2018-05-18T22:03:40.103Z,60.30
2018-05-18T22:06:07.579Z,60.20
2018-05-18T22:08:35.005Z,60.20
2018-05-18T22:11:02.470Z,60.10
2018-05-18T22:13:29.925Z,60.20
2018-05-18T22:15:57.385Z,60.00
2018-05-18T22:18:24.984Z,59.90
2018-05-18T22:20:52.406Z,59.90
2018-05-18T22:23:20.142Z,59.90
2018-05-18T22:25:47.885Z,59.80
2018-05-18T22:28:16.110Z,59.80
2018-05-18T22:30:43.580Z,59.80
2018-05-18T22:33:11.106Z,59.70
2018-05-18T22:35:38.582Z,60.00
2018-05-18T22:38:06.171Z,60.10
2018-05-18T22:40:34.514Z,59.90
2018-05-18T22:43:01.939Z,59.90
2018-05-18T22:45:29.382Z,60.00
2018-05-18T22:47:57.766Z,60.00
2018-05-18T22:50:26.386Z,60.10
2018-05-18T22:52:53.842Z,60.10
2018-05-18T22:55:21.294Z,60.00
2018-05-18T22:57:48.744Z,60.10
2018-05-18T23:00:22.214Z,60.30
2018-05-18T23:02:50.450Z,60.30
2018-05-18T23:05:18.050Z,60.20
2018-05-18T23:07:46.301Z,60.50
2018-05-18T23:10:13.719Z,60.40
2018-05-18T23:12:41.177Z,60.50
2018-05-18T23:15:08.613Z,60.40
2018-05-18T23:17:36.074Z,60.40
2018-05-18T23:20:03.521Z,60.50
2018-05-18T23:22:31.066Z,60.30
2018-05-18T23:24:59.258Z,60.30
2018-05-18T23:27:26.734Z,60.20
2018-05-18T23:29:54.180Z,59.90
2018-05-18T23:32:22.486Z,59.80
2018-05-18T23:34:49.952Z,59.90
2018-05-18T23:37:17.378Z,60.00
2018-05-18T23:39:44.838Z,59.90
2018-05-18T23:42:12.294Z,59.80
2018-05-18T23:44:39.759Z,59.80
2018-05-18T23:47:07.201Z,59.90
2018-05-18T23:49:34.657Z,59.80
2018-05-18T23:52:02.818Z,59.90
2018-05-18T23:54:30.338Z,59.90
2018-05-18T23:56:57.794Z,60.20
2018-05-18T23:59:25.238Z,60.10
